Beatty, Nevada Weather observations

Data are for observation ending at time listed.
 Day   Time    Ave.   Ave.  Ave.  Vector   Max.   Stn.    Total    Solar   Ave.  
  of    of     Air    Rel.  Wind   Wind    Wind   Baro.  Precip.   Rad.    Soil  
Year   Day     Temp.  Hum.  Speed  Dir.    Gust   Pres.                    Temp. 
2015   (PST)    F      %     mph   deg.    mph     mb.     in.     W/m2     F   
------------------------------------------------------------------------------
  56   15:00   70.0     9    5.8   353     12.1   901.6    0.00     354    50.6
  56   15:10   69.5     9    8.0   354     19.6   901.4    0.00     161    50.7
  56   15:20   69.2    10    6.2   350     12.0   901.3    0.00      98    50.8
  56   15:30   69.4    10    6.0   351     14.0   901.1    0.00     121    50.8
  56   15:40   69.2    10    7.1   354     13.1   901.0    0.00     123    50.8
  56   15:50   68.9    10    4.4   336     13.7   900.9    0.00     130    50.9
  56   16:00   69.0    10    4.4   342     11.3   900.9    0.00     123    51.0
  56   16:10   68.9    10    4.8   338     11.7   900.9    0.00     132    51.0
  56   16:20   68.3    10    3.6   338      7.9   900.8    0.00      79    51.1
  56   16:30   67.8    10    3.4   343      6.9   900.7    0.00      66    51.1
  56   16:40   67.6    10    3.4   360      8.0   900.6    0.00      39    51.2
  56   16:50   67.2    11    1.5   336      4.2   900.6    0.00      36    51.3
  56   17:00   67.0    11    3.1     3      5.9   900.5    0.00      27    51.3
  56   17:10   66.8    11    2.7   345     11.0   900.4    0.00      26    51.4
  56   17:20   66.5    11    3.9   348     10.1   900.4    0.00      17    51.5
  56   17:30   66.3    11    5.4   356     11.2   900.6    0.00      12    51.5
  56   17:40   66.1    11    6.2   358     12.9   900.5    0.00       6    51.6
  56   17:50   65.7    11    6.3     4     11.5   900.4    0.00       0    51.6
  56   18:00   65.1    12    6.0     7     10.9   900.3    0.00       0    51.7
  56   18:10   64.7    12    6.6     6     11.4   900.4    0.00       0    51.7
  56   18:20   64.2    12    7.2     9     13.2   900.5    0.00       0    51.8
  56   18:30   63.8    12    6.9     9     11.7   900.7    0.00       0    51.9
  56   18:40   63.2    13    4.7    21     10.2   900.7    0.00       0    51.9
  56   18:50   60.9    15    2.8    48      6.1   900.8    0.00       0    52.0
  56   19:00   59.9    16    3.3     7      7.0   900.8    0.00       0    52.1
  56   19:10   58.9    17    1.6    31      4.2   900.9    0.00       0    52.1
  56   19:20   58.4    18    2.7   350      6.1   901.0    0.00       0    52.1
  56   19:30   57.2    19    2.9   356      5.7   901.1    0.00       0    52.2
  56   19:40   58.0    19    2.0    75      4.7   901.0    0.00       0    52.2
  56   19:50   55.8    21    1.3    23      3.2   901.1    0.00       0    52.2
  56   20:00   55.1    22    1.1    31      2.9   901.3    0.00       0    52.3
  56   20:10   53.5    25    1.4     8      3.1   901.5    0.00       0    52.4
  56   20:20   53.3    24    2.0    35      4.9   901.6    0.00       0    52.4
  56   20:30   54.3    22    3.3    45      7.5   901.6    0.00       0    52.4
  56   20:40   55.4    21    3.9     8      6.9   901.4    0.00       0    52.4
  56   20:50   55.1    20    3.9    21      7.7   901.4    0.00       0    52.4
  56   21:00   56.2    19    4.6    42     11.7   901.4    0.00       0    52.5
  56   21:10   53.3    23    3.7    58      8.5   901.4    0.00       0    52.5
  56   21:20   53.4    22    3.5    60      8.5   901.5    0.00       0    52.5
  56   21:30   53.4    22    2.9     7      6.3   901.6    0.00       0    52.6
  56   21:40   50.8    26    2.4    53      5.9   901.7    0.00       0    52.6
  56   21:50   49.6    26    2.7    65      5.2   901.7    0.00       0    52.6
  56   22:00   50.3    24    2.3    58      5.2   901.7    0.00       0    52.7
  56   22:10   51.4    22    2.4    36      5.3   901.5    0.00       0    52.7
  56   22:20   50.9    23    3.4    38      7.9   901.6    0.00       0    52.7
  56   22:30   47.9    27    3.7    41      8.8   901.6    0.00       0    52.7
  56   22:40   48.1    27    3.4     5      6.6   901.5    0.00       0    52.7
  56   22:50   46.5    29    3.1   332      5.6   901.5    0.00       0    52.7
  56   23:00   46.7    28    5.0   354      9.3   901.5    0.00       0    52.8
  56   23:10   46.6    28    3.4     8      7.3   901.5    0.00       0    52.8
  56   23:20   46.7    28    2.7    30      7.0   901.4    0.00       0    52.8
  56   23:30   45.7    30    4.3     5      8.3   901.3    0.00       0    52.8
  56   23:40   46.9    26    3.7    21      8.4   901.3    0.00       0    52.8
  56   23:50   49.3    23    3.5    38      8.7   901.4    0.00       0    52.8
  57    0:00   49.6    23    4.1    31      8.0   901.1    0.00       0    52.8
  57    0:10   47.9    26    6.3     4     12.1   901.2    0.00       0    52.8
  57    0:20   45.5    29    5.0    22     11.0   901.3    0.00       0    52.8
  57    0:30   45.4    29    5.8    13     11.3   901.3    0.00       0    52.8
  57    0:40   46.9    26    3.8    45      9.0   901.1    0.00       0    52.8
  57    0:50   47.7    25    3.2    34      8.3   901.1    0.00       0    52.8
  57    1:00   45.7    28    4.9    31      9.6   901.0    0.00       0    52.8
  57    1:10   42.3    34    3.2    49      6.6   901.1    0.00       0    52.8
  57    1:20   41.4    35    3.0    48      7.0   901.0    0.00       0    52.8
  57    1:30   42.8    31    4.4    30     10.3   900.6    0.00       0    52.8
  57    1:40   44.0    29    4.6    36      9.9   900.7    0.00       0    52.8
  57    1:50   42.5    31    3.5    68      8.3   900.6    0.00       0    52.8
  57    2:00   43.8    29    4.2    34      8.0   900.5    0.00       0    52.8
  57    2:10   45.7    26    4.3    23      8.2   900.4    0.00       0    52.7
  57    2:20   45.0    28    5.1     8      9.6   900.1    0.00       0    52.7
  57    2:30   42.8    31    4.3     6      9.3   900.0    0.00       0    52.7
  57    2:40   42.4    31    2.1    34      5.6   899.9    0.00       0    52.7
  57    2:50   42.6    31    4.0    24      7.7   899.9    0.00       0    52.7
  57    3:00   41.3    33    6.5     0     10.2   899.8    0.00       0    52.7
  57    3:10   41.2    33    6.5   360     10.5   899.8    0.00       0    52.7
  57    3:20   40.9    33    5.5    16     10.5   899.9    0.00       0    52.6
  57    3:30   41.3    33    4.8    19      8.4   899.8    0.00       0    52.6
  57    3:40   40.5    34    5.5    25     11.0   899.7    0.00       0    52.6
  57    3:50   41.8    32    5.0    19     10.0   899.6    0.00       0    52.6
  57    4:00   41.0    33    5.6    14     10.1   899.5    0.00       0    52.5
  57    4:10   42.2    31    4.5    20      8.8   899.4    0.00       0    52.5
  57    4:20   42.6    30    4.9    20      9.6   899.3    0.00       0    52.5
  57    4:30   42.5    30    4.2    26      8.9   899.1    0.00       0    52.4
  57    4:40   43.7    29    3.9    40      8.0   899.0    0.00       0    52.4
  57    4:50   43.4    29    3.4    35      7.9   898.9    0.00       0    52.4
  57    5:00   43.3    29    4.3    44     11.8   898.9    0.00       0    52.4
  57    5:10   42.7    30    5.5    28     10.4   899.0    0.00       0    52.3
  57    5:20   41.8    31    5.1    45     13.4   899.1    0.00       0    52.3
  57    5:30   43.1    29    4.5    54      8.9   899.1    0.00       0    52.2
  57    5:40   44.8    27    6.3    72     14.7   899.1    0.00       0    52.2
  57    5:50   45.0    27    3.9    57      9.8   899.3    0.00       0    52.2
  57    6:00   42.5    31    3.6    30      8.2   899.4    0.00       0    52.1
  57    6:10   42.3    30    3.7    57      8.2   899.4    0.00       0    52.1
  57    6:20   42.3    31    5.7    17     11.0   899.5    0.00       0    52.1
  57    6:30   41.8    31    7.1    18     12.3   899.6    0.00       3    52.1
  57    6:40   43.9    28    3.8    31      8.0   899.6    0.00       6    52.0
  57    6:50   44.0    29    4.6    32      8.8   899.8    0.00       8    52.0
  57    7:00   41.9    32    5.0    13      9.8   899.8    0.00      12    51.9
  57    7:10   42.7    30    3.7    51     11.6   899.8    0.00      16    51.9
  57    7:20   44.1    29    3.3    34      9.3   899.8    0.00      17    51.9
  57    7:30   44.8    28    3.6    32      8.8   899.8    0.00      83    51.8
  57    7:40   46.4    27    4.4    20      8.1   899.8    0.00     183    51.8
  57    7:50   46.5    27    5.7   356     10.4   900.0    0.00     206    51.7
  57    8:00   46.7    27    6.1   358      9.1   900.0    0.00     234    51.7
  57    8:10   47.4    27    4.8   360      7.9   900.0    0.00     261    51.6
  57    8:20   49.0    25    4.1    18      6.9   900.0    0.00     291    51.6
  57    8:30   51.4    23    2.4    59      7.5   900.0    0.00     318    51.6
  57    8:40   52.3    22    4.9    82      9.2   899.8    0.00     349    51.5
  57    8:50   52.9    22    4.8    85      9.3   899.6    0.00     365    51.5
  57    9:00   54.4    21    3.6    57      9.7   899.5    0.00     388    51.5
  57    9:10   56.8    19    8.3   358     16.4   899.4    0.00     406    51.5
  57    9:20   57.8    19    8.6     2     19.8   899.5    0.00     428    51.4
  57    9:30   58.2    19    8.5   360     15.0   899.5    0.00     448    51.4
  57    9:40   58.7    18    8.9   358     17.2   899.6    0.00     468    51.4
  57    9:50   59.5    18    9.0   356     18.4   899.3    0.00     488    51.4
  57   10:00   59.8    18   12.7     4     19.2   899.1    0.00     507    51.4
  57   10:10   60.3    18   10.8   360     18.6   899.1    0.00     523    51.4
  57   10:20   60.7    18    9.4     1     17.5   899.1    0.00     538    51.3
  57   10:30   61.0    18   10.1   355     22.3   899.1    0.00     551    51.3
  57   10:40   61.2    18    8.6     0     17.2   899.0    0.00     568    51.3
  57   10:50   62.0    18   11.4     2     22.4   898.8    0.00     582    51.3
  57   11:00   61.8    18   13.3   358     25.8   898.5    0.00     590    51.2
  57   11:10   62.3    18   14.5     0     22.6   898.3    0.00     599    51.3
  57   11:20   62.2    18   13.2   358     23.5   898.3    0.00     606    51.3
  57   11:30   63.1    18    9.2   348     22.1   898.1    0.00     611    51.3
  57   11:40   63.5    18    9.8   359     21.6   897.9    0.00     617    51.2
  57   11:50   63.3    18   10.2   357     18.9   897.7    0.00     621    51.2
  57   12:00   63.8    17    9.6   355     22.4   897.5    0.00     625    51.3
  57   12:10   63.4    17   13.2   359     21.3   897.2    0.00     628    51.3
  57   12:20   63.6    17   12.9   360     25.8   897.0    0.00     622    51.3
  57   12:30   63.5    18   15.4     1     28.8   896.7    0.00     609    51.3
  57   12:40   63.5    17   13.7   355     28.1   896.7    0.00     618    51.3
  57   12:50   64.5    16    9.4   343     22.1   896.6    0.00     625    51.4
  57   13:00   64.8    16    9.3   343     22.6   896.6    0.00     613    51.4
  57   13:10   64.3    15   12.5   355     28.1   896.5    0.00     591    51.4
  57   13:20   64.0    15   13.0   357     29.3   896.3    0.00     554    51.4
  57   13:30   63.6    15   13.4   360     27.2   896.2    0.00     549    51.5
  57   13:40   63.6    16   12.8     1     22.9   896.0    0.00     524    51.5
  57   13:50   64.5    16    7.1   347     14.7   895.8    0.00     485    51.6
  57   14:00   64.5    15   10.7   353     20.2   895.7    0.00     474    51.6
  57   14:10   64.5    16    7.2   340     15.5   895.6    0.00     470    51.7
  57   14:20   64.9    15    8.7   348     18.0   895.5    0.00     461    51.7
  57   14:30   64.7    15   10.0   349     23.9   895.5    0.00     433    51.7
  57   14:40   64.6    15    8.3   338     17.9   895.3    0.00     409    51.8
  57   14:50   64.2    14   13.0   356     23.5   895.2    0.00     310    51.8

Return to Beatty, Nevada graphs page.


Western Regional Climate Center,wrcc@dri.edu